N312CL KAXX-KBCE
Flight info
| Callsign | N312CL |
|---|---|
| Flight time | 1h 57m |
| Altitude | 18000 |
| Route | ANEKE2 CELAV FTI J58 RSK TAHIB Q130 HASSL AXGEX |
| Aircraft | BT36/L-BDFGLORY/S |
Departure
| Time | 2026-04-26 01:44 |
|---|---|
| Airport | Angel Fire Airport (KAXX) |
Arrival
| Time | 2026-04-26 03:42 |
|---|---|
| Airport | Bryce Canyon Airport (KBCE) |
| Time | Latitude | Longitude | Altitude | Speed | Heading |
|---|---|---|---|---|---|
| 2026-04-26 01:37 | 36.41998 | -105.29112 | 8360 ft | 0 kts | 91° |
| 2026-04-26 01:41 | 36.42001 | -105.29097 | 8360 ft | 6 kts | 53° |
| 2026-04-26 01:41 | 36.42081 | -105.29077 | 8356 ft | 18 kts | 7° |
| 2026-04-26 01:41 | 36.42239 | -105.29069 | 8349 ft | 25 kts | 2° |
| 2026-04-26 01:41 | 36.42386 | -105.29059 | 8349 ft | 19 kts | 2° |
| 2026-04-26 01:42 | 36.42513 | -105.29053 | 8346 ft | 19 kts | 2° |
| 2026-04-26 01:42 | 36.42654 | -105.29045 | 8344 ft | 21 kts | 2° |
| 2026-04-26 01:42 | 36.42791 | -105.29036 | 8345 ft | 17 kts | 359° |
| 2026-04-26 01:42 | 36.42836 | -105.29029 | 8344 ft | 2 kts | 52° |
| 2026-04-26 01:43 | 36.42838 | -105.28979 | 8343 ft | 7 kts | 106° |
| 2026-04-26 01:43 | 36.42807 | -105.28966 | 8343 ft | 14 kts | 184° |
| 2026-04-26 01:43 | 36.42561 | -105.28979 | 8346 ft | 56 kts | 182° |
| 2026-04-26 01:43 | 36.42048 | -105.29006 | 8358 ft | 90 kts | 182° |
| 2026-04-26 01:44 | 36.41364 | -105.29017 | 8471 ft | 102 kts | 186° |
| 2026-04-26 01:44 | 36.40650 | -105.28998 | 8795 ft | 97 kts | 191° |
| 2026-04-26 01:44 | 36.39976 | -105.28999 | 9026 ft | 103 kts | 194° |
| 2026-04-26 01:44 | 36.39239 | -105.29037 | 9406 ft | 107 kts | 195° |
| 2026-04-26 01:45 | 36.38488 | -105.29092 | 9729 ft | 104 kts | 195° |
| 2026-04-26 01:45 | 36.37772 | -105.29112 | 9922 ft | 107 kts | 194° |
| 2026-04-26 01:45 | 36.36964 | -105.29066 | 10048 ft | 121 kts | 188° |
| 2026-04-26 01:45 | 36.36108 | -105.28913 | 10188 ft | 130 kts | 182° |
| 2026-04-26 01:46 | 36.35184 | -105.28712 | 10359 ft | 138 kts | 175° |
| 2026-04-26 01:46 | 36.34270 | -105.28697 | 10627 ft | 128 kts | 207° |
| 2026-04-26 01:46 | 36.33638 | -105.29366 | 10889 ft | 117 kts | 247° |
| 2026-04-26 01:46 | 36.33577 | -105.30360 | 11118 ft | 121 kts | 281° |
| 2026-04-26 01:47 | 36.33915 | -105.31340 | 11237 ft | 116 kts | 284° |
| 2026-04-26 01:47 | 36.34073 | -105.32211 | 11367 ft | 104 kts | 272° |
| 2026-04-26 01:47 | 36.34173 | -105.33140 | 11462 ft | 111 kts | 274° |
| 2026-04-26 01:47 | 36.34254 | -105.34095 | 11773 ft | 112 kts | 272° |
| 2026-04-26 01:48 | 36.34326 | -105.35074 | 12086 ft | 116 kts | 272° |
| 2026-04-26 01:48 | 36.34401 | -105.36076 | 12401 ft | 117 kts | 272° |
| 2026-04-26 01:48 | 36.34473 | -105.37086 | 12692 ft | 118 kts | 272° |
| 2026-04-26 01:48 | 36.34546 | -105.38100 | 12925 ft | 118 kts | 273° |
| 2026-04-26 01:49 | 36.34616 | -105.39118 | 13182 ft | 118 kts | 272° |
| 2026-04-26 01:49 | 36.34685 | -105.40134 | 13427 ft | 118 kts | 271° |
| 2026-04-26 01:49 | 36.34756 | -105.41149 | 13708 ft | 118 kts | 270° |
| 2026-04-26 01:49 | 36.34826 | -105.42158 | 13959 ft | 117 kts | 271° |
| 2026-04-26 01:50 | 36.34896 | -105.43163 | 14227 ft | 118 kts | 271° |
| 2026-04-26 01:50 | 36.34965 | -105.44185 | 14500 ft | 120 kts | 270° |
| 2026-04-26 01:50 | 36.35036 | -105.45202 | 14708 ft | 119 kts | 270° |
| 2026-04-26 01:50 | 36.35110 | -105.46230 | 14885 ft | 119 kts | 270° |
| 2026-04-26 01:51 | 36.35176 | -105.47251 | 15121 ft | 119 kts | 269° |
| 2026-04-26 01:51 | 36.35249 | -105.48289 | 15247 ft | 122 kts | 271° |
| 2026-04-26 01:51 | 36.35322 | -105.49343 | 15260 ft | 125 kts | 272° |
| 2026-04-26 01:51 | 36.35390 | -105.50395 | 15535 ft | 121 kts | 269° |
| 2026-04-26 01:52 | 36.35463 | -105.51439 | 15748 ft | 122 kts | 270° |
| 2026-04-26 01:52 | 36.35537 | -105.52491 | 15967 ft | 124 kts | 269° |
| 2026-04-26 01:52 | 36.35610 | -105.53571 | 16102 ft | 129 kts | 270° |
| 2026-04-26 01:52 | 36.35685 | -105.54675 | 16364 ft | 127 kts | 270° |
| 2026-04-26 01:53 | 36.35760 | -105.55769 | 16586 ft | 128 kts | 269° |
| 2026-04-26 01:53 | 36.35834 | -105.56867 | 16822 ft | 127 kts | 269° |
| 2026-04-26 01:53 | 36.35909 | -105.57969 | 17030 ft | 128 kts | 269° |
| 2026-04-26 01:53 | 36.35984 | -105.59070 | 17253 ft | 128 kts | 269° |
| 2026-04-26 01:54 | 36.36059 | -105.60181 | 17440 ft | 130 kts | 269° |
| 2026-04-26 01:54 | 36.36134 | -105.61303 | 17650 ft | 131 kts | 268° |
| 2026-04-26 01:54 | 36.36211 | -105.62431 | 17836 ft | 132 kts | 268° |
| 2026-04-26 01:54 | 36.36289 | -105.63608 | 17847 ft | 145 kts | 269° |
| 2026-04-26 01:55 | 36.36347 | -105.64471 | 17841 ft | 153 kts | 268° |
| 2026-04-26 01:55 | 36.36470 | -105.66292 | 17823 ft | 166 kts | 269° |
| 2026-04-26 01:55 | 36.36568 | -105.67752 | 17800 ft | 173 kts | 269° |
| 2026-04-26 01:55 | 36.36671 | -105.69268 | 17800 ft | 179 kts | 269° |
| 2026-04-26 01:56 | 36.36742 | -105.70320 | 17791 ft | 182 kts | 269° |
| 2026-04-26 01:56 | 36.36846 | -105.71878 | 17783 ft | 185 kts | 269° |
| 2026-04-26 01:56 | 36.36952 | -105.73484 | 17773 ft | 188 kts | 269° |
| 2026-04-26 01:56 | 36.37061 | -105.75107 | 17771 ft | 190 kts | 269° |
| 2026-04-26 01:57 | 36.37170 | -105.76740 | 17770 ft | 191 kts | 269° |
| 2026-04-26 01:57 | 36.37279 | -105.78385 | 17767 ft | 191 kts | 269° |
| 2026-04-26 01:57 | 36.37387 | -105.80035 | 17744 ft | 192 kts | 269° |
| 2026-04-26 01:57 | 36.37497 | -105.81692 | 17759 ft | 193 kts | 269° |
| 2026-04-26 01:58 | 36.37606 | -105.83353 | 17763 ft | 194 kts | 269° |
| 2026-04-26 01:58 | 36.37715 | -105.85019 | 17762 ft | 194 kts | 269° |
| 2026-04-26 01:58 | 36.37824 | -105.86686 | 17762 ft | 194 kts | 269° |
| 2026-04-26 01:58 | 36.37932 | -105.88347 | 17762 ft | 193 kts | 269° |
| 2026-04-26 01:59 | 36.38041 | -105.90008 | 17761 ft | 193 kts | 269° |
| 2026-04-26 01:59 | 36.38148 | -105.91664 | 17761 ft | 192 kts | 269° |
| 2026-04-26 01:59 | 36.38256 | -105.93317 | 17761 ft | 192 kts | 269° |
| 2026-04-26 01:59 | 36.38364 | -105.94979 | 17756 ft | 194 kts | 269° |
| 2026-04-26 02:00 | 36.38469 | -105.96648 | 17757 ft | 194 kts | 269° |
| 2026-04-26 02:00 | 36.38577 | -105.98311 | 17758 ft | 193 kts | 269° |
| 2026-04-26 02:00 | 36.38685 | -105.99978 | 17748 ft | 194 kts | 269° |
| 2026-04-26 02:00 | 36.38791 | -106.01626 | 17764 ft | 194 kts | 270° |
| 2026-04-26 02:01 | 36.38898 | -106.03299 | 17759 ft | 195 kts | 270° |
| 2026-04-26 02:01 | 36.39005 | -106.04980 | 17759 ft | 196 kts | 270° |
| 2026-04-26 02:01 | 36.39112 | -106.06665 | 17768 ft | 196 kts | 270° |
| 2026-04-26 02:01 | 36.39218 | -106.08352 | 17766 ft | 196 kts | 270° |
| 2026-04-26 02:02 | 36.39327 | -106.10030 | 17768 ft | 195 kts | 270° |
| 2026-04-26 02:02 | 36.39432 | -106.11704 | 17766 ft | 195 kts | 270° |
| 2026-04-26 02:02 | 36.39538 | -106.13384 | 17767 ft | 195 kts | 270° |
| 2026-04-26 02:02 | 36.39643 | -106.15063 | 17769 ft | 195 kts | 270° |
| 2026-04-26 02:03 | 36.39751 | -106.16742 | 17768 ft | 196 kts | 270° |
| 2026-04-26 02:03 | 36.39855 | -106.18422 | 17770 ft | 195 kts | 270° |
| 2026-04-26 02:03 | 36.39960 | -106.20107 | 17769 ft | 196 kts | 270° |
| 2026-04-26 02:03 | 36.40064 | -106.21791 | 17782 ft | 195 kts | 270° |
| 2026-04-26 02:04 | 36.40171 | -106.23471 | 17783 ft | 195 kts | 270° |
| 2026-04-26 02:04 | 36.40275 | -106.25146 | 17792 ft | 195 kts | 270° |
| 2026-04-26 02:04 | 36.40379 | -106.26826 | 17780 ft | 194 kts | 269° |
| 2026-04-26 02:04 | 36.40482 | -106.28492 | 17782 ft | 194 kts | 270° |
| 2026-04-26 02:05 | 36.40584 | -106.30162 | 17782 ft | 194 kts | 270° |
| 2026-04-26 02:05 | 36.40685 | -106.31805 | 17785 ft | 194 kts | 270° |
| 2026-04-26 02:05 | 36.40790 | -106.33502 | 17793 ft | 195 kts | 270° |
| 2026-04-26 02:05 | 36.40892 | -106.35169 | 17809 ft | 196 kts | 270° |
| 2026-04-26 02:06 | 36.40996 | -106.36861 | 17803 ft | 197 kts | 270° |
| 2026-04-26 02:06 | 36.41100 | -106.38554 | 17804 ft | 196 kts | 270° |
| 2026-04-26 02:06 | 36.41203 | -106.40242 | 17799 ft | 196 kts | 270° |
| 2026-04-26 02:06 | 36.41305 | -106.41929 | 17796 ft | 196 kts | 270° |
| 2026-04-26 02:07 | 36.41406 | -106.43610 | 17799 ft | 195 kts | 270° |
| 2026-04-26 02:07 | 36.41508 | -106.45293 | 17798 ft | 195 kts | 270° |
| 2026-04-26 02:07 | 36.41610 | -106.46972 | 17798 ft | 195 kts | 270° |
| 2026-04-26 02:07 | 36.41710 | -106.48653 | 17797 ft | 195 kts | 270° |
| 2026-04-26 02:08 | 36.41811 | -106.50328 | 17805 ft | 194 kts | 270° |
| 2026-04-26 02:08 | 36.41912 | -106.52003 | 17806 ft | 194 kts | 270° |
| 2026-04-26 02:08 | 36.42011 | -106.53676 | 17804 ft | 194 kts | 270° |
| 2026-04-26 02:08 | 36.42111 | -106.55340 | 17805 ft | 193 kts | 270° |
| 2026-04-26 02:09 | 36.42209 | -106.57003 | 17801 ft | 193 kts | 270° |
| 2026-04-26 02:09 | 36.42308 | -106.58658 | 17800 ft | 192 kts | 270° |
| 2026-04-26 02:09 | 36.42404 | -106.60290 | 17798 ft | 192 kts | 270° |
| 2026-04-26 02:09 | 36.42503 | -106.61960 | 17798 ft | 192 kts | 270° |
| 2026-04-26 02:10 | 36.42598 | -106.63596 | 17801 ft | 192 kts | 270° |
| 2026-04-26 02:10 | 36.42696 | -106.65248 | 17801 ft | 192 kts | 270° |
| 2026-04-26 02:10 | 36.42793 | -106.66902 | 17802 ft | 192 kts | 270° |
| 2026-04-26 02:10 | 36.42890 | -106.68560 | 17803 ft | 192 kts | 270° |
| 2026-04-26 02:11 | 36.42986 | -106.70218 | 17820 ft | 194 kts | 269° |
| 2026-04-26 02:11 | 36.43086 | -106.71889 | 17803 ft | 193 kts | 270° |
| 2026-04-26 02:11 | 36.43181 | -106.73545 | 17805 ft | 192 kts | 270° |
| 2026-04-26 02:11 | 36.43276 | -106.75199 | 17807 ft | 192 kts | 270° |
| 2026-04-26 02:12 | 36.43372 | -106.76852 | 17805 ft | 191 kts | 270° |
| 2026-04-26 02:12 | 36.43466 | -106.78494 | 17807 ft | 190 kts | 270° |
| 2026-04-26 02:12 | 36.43561 | -106.80137 | 17810 ft | 191 kts | 270° |
| 2026-04-26 02:12 | 36.43656 | -106.81785 | 17802 ft | 191 kts | 269° |
| 2026-04-26 02:13 | 36.43750 | -106.83429 | 17803 ft | 190 kts | 269° |
| 2026-04-26 02:13 | 36.43846 | -106.85071 | 17803 ft | 191 kts | 269° |
| 2026-04-26 02:13 | 36.43937 | -106.86712 | 17809 ft | 191 kts | 269° |
| 2026-04-26 02:13 | 36.44030 | -106.88365 | 17817 ft | 193 kts | 268° |
| 2026-04-26 02:14 | 36.44124 | -106.90034 | 17807 ft | 194 kts | 269° |
| 2026-04-26 02:14 | 36.44219 | -106.91701 | 17811 ft | 194 kts | 270° |
| 2026-04-26 02:14 | 36.44312 | -106.93352 | 17806 ft | 194 kts | 269° |
| 2026-04-26 02:14 | 36.44405 | -106.95013 | 17806 ft | 192 kts | 270° |
| 2026-04-26 02:15 | 36.44502 | -106.96668 | 17805 ft | 191 kts | 270° |
| 2026-04-26 02:15 | 36.44594 | -106.98316 | 17804 ft | 191 kts | 269° |
| 2026-04-26 02:15 | 36.44683 | -106.99953 | 17801 ft | 190 kts | 269° |
| 2026-04-26 02:15 | 36.44774 | -107.01584 | 17801 ft | 189 kts | 269° |
| 2026-04-26 02:16 | 36.44864 | -107.03205 | 17799 ft | 188 kts | 269° |
| 2026-04-26 02:16 | 36.44954 | -107.04823 | 17799 ft | 187 kts | 269° |
| 2026-04-26 02:16 | 36.45043 | -107.06427 | 17805 ft | 186 kts | 269° |
| 2026-04-26 02:16 | 36.45131 | -107.08023 | 17805 ft | 185 kts | 269° |
| 2026-04-26 02:17 | 36.45219 | -107.09617 | 17807 ft | 185 kts | 269° |
| 2026-04-26 02:17 | 36.45305 | -107.11207 | 17804 ft | 185 kts | 269° |
| 2026-04-26 02:17 | 36.45392 | -107.12798 | 17805 ft | 185 kts | 269° |
| 2026-04-26 02:17 | 36.45480 | -107.14391 | 17806 ft | 185 kts | 269° |
| 2026-04-26 02:18 | 36.45566 | -107.15986 | 17812 ft | 185 kts | 269° |
| 2026-04-26 02:18 | 36.45653 | -107.17584 | 17812 ft | 186 kts | 269° |
| 2026-04-26 02:18 | 36.45739 | -107.19164 | 17819 ft | 187 kts | 269° |
| 2026-04-26 02:18 | 36.45826 | -107.20786 | 17816 ft | 189 kts | 269° |
| 2026-04-26 02:19 | 36.45914 | -107.22420 | 17813 ft | 191 kts | 269° |
| 2026-04-26 02:19 | 36.46004 | -107.24071 | 17815 ft | 192 kts | 269° |
| 2026-04-26 02:19 | 36.46092 | -107.25725 | 17818 ft | 192 kts | 269° |
| 2026-04-26 02:19 | 36.46181 | -107.27391 | 17816 ft | 194 kts | 270° |
| 2026-04-26 02:20 | 36.46275 | -107.29061 | 17817 ft | 194 kts | 271° |
| 2026-04-26 02:20 | 36.46682 | -107.30689 | 17820 ft | 201 kts | 288° |
| 2026-04-26 02:20 | 36.47263 | -107.32262 | 17817 ft | 200 kts | 288° |
| 2026-04-26 02:20 | 36.47829 | -107.33849 | 17824 ft | 201 kts | 287° |
| 2026-04-26 02:21 | 36.48399 | -107.35439 | 17820 ft | 201 kts | 288° |
| 2026-04-26 02:21 | 36.48971 | -107.37028 | 17821 ft | 201 kts | 288° |
| 2026-04-26 02:21 | 36.49543 | -107.38619 | 17820 ft | 202 kts | 288° |
| 2026-04-26 02:21 | 36.50113 | -107.40212 | 17828 ft | 201 kts | 287° |
| 2026-04-26 02:22 | 36.50685 | -107.41800 | 17814 ft | 201 kts | 287° |
| 2026-04-26 02:22 | 36.51252 | -107.43380 | 17814 ft | 200 kts | 287° |
| 2026-04-26 02:22 | 36.51817 | -107.44957 | 17805 ft | 199 kts | 287° |
| 2026-04-26 02:22 | 36.52380 | -107.46531 | 17804 ft | 199 kts | 287° |
| 2026-04-26 02:23 | 36.52942 | -107.48099 | 17808 ft | 198 kts | 287° |
| 2026-04-26 02:23 | 36.53495 | -107.49645 | 17809 ft | 198 kts | 287° |
| 2026-04-26 02:23 | 36.54055 | -107.51211 | 17807 ft | 198 kts | 287° |
| 2026-04-26 02:23 | 36.54616 | -107.52778 | 17807 ft | 198 kts | 287° |
| 2026-04-26 02:24 | 36.55175 | -107.54343 | 17810 ft | 198 kts | 287° |
| 2026-04-26 02:24 | 36.55733 | -107.55906 | 17809 ft | 197 kts | 287° |
| 2026-04-26 02:24 | 36.56289 | -107.57464 | 17809 ft | 197 kts | 287° |
| 2026-04-26 02:24 | 36.56847 | -107.59028 | 17810 ft | 198 kts | 287° |
| 2026-04-26 02:25 | 36.57405 | -107.60593 | 17803 ft | 198 kts | 287° |
| 2026-04-26 02:25 | 36.57962 | -107.62157 | 17804 ft | 198 kts | 287° |
| 2026-04-26 02:25 | 36.58521 | -107.63723 | 17796 ft | 198 kts | 287° |
| 2026-04-26 02:25 | 36.59077 | -107.65287 | 17799 ft | 198 kts | 287° |
| 2026-04-26 02:26 | 36.59633 | -107.66848 | 17805 ft | 198 kts | 287° |
| 2026-04-26 02:26 | 36.60190 | -107.68413 | 17799 ft | 197 kts | 286° |
| 2026-04-26 02:26 | 36.60742 | -107.69970 | 17800 ft | 197 kts | 287° |
| 2026-04-26 02:26 | 36.61294 | -107.71526 | 17806 ft | 196 kts | 287° |
| 2026-04-26 02:27 | 36.61848 | -107.73087 | 17808 ft | 198 kts | 287° |
| 2026-04-26 02:27 | 36.62403 | -107.74641 | 17820 ft | 199 kts | 287° |
| 2026-04-26 02:27 | 36.62966 | -107.76228 | 17818 ft | 201 kts | 287° |
| 2026-04-26 02:27 | 36.63532 | -107.77824 | 17816 ft | 202 kts | 287° |
| 2026-04-26 02:28 | 36.64098 | -107.79424 | 17817 ft | 203 kts | 287° |
| 2026-04-26 02:28 | 36.64669 | -107.81033 | 17808 ft | 203 kts | 287° |
| 2026-04-26 02:28 | 36.65240 | -107.82645 | 17816 ft | 203 kts | 287° |
| 2026-04-26 02:28 | 36.65808 | -107.84249 | 17823 ft | 202 kts | 287° |
| 2026-04-26 02:29 | 36.66374 | -107.85853 | 17830 ft | 202 kts | 287° |
| 2026-04-26 02:29 | 36.66939 | -107.87453 | 17837 ft | 202 kts | 287° |
| 2026-04-26 02:29 | 36.67505 | -107.89055 | 17843 ft | 202 kts | 287° |
| 2026-04-26 02:29 | 36.68071 | -107.90657 | 17850 ft | 202 kts | 287° |
| 2026-04-26 02:30 | 36.68638 | -107.92264 | 17858 ft | 203 kts | 287° |
| 2026-04-26 02:30 | 36.69207 | -107.93878 | 17866 ft | 203 kts | 287° |
| 2026-04-26 02:30 | 36.69777 | -107.95493 | 17872 ft | 204 kts | 287° |
| 2026-04-26 02:30 | 36.70346 | -107.97107 | 17879 ft | 204 kts | 287° |
| 2026-04-26 02:31 | 36.70915 | -107.98723 | 17885 ft | 204 kts | 287° |
| 2026-04-26 02:31 | 36.71485 | -108.00342 | 17888 ft | 204 kts | 287° |
| 2026-04-26 02:31 | 36.72049 | -108.01946 | 17896 ft | 204 kts | 287° |
| 2026-04-26 02:31 | 36.72619 | -108.03566 | 17904 ft | 204 kts | 287° |
| 2026-04-26 02:32 | 36.73188 | -108.05186 | 17905 ft | 204 kts | 286° |
| 2026-04-26 02:32 | 36.73756 | -108.06803 | 17911 ft | 204 kts | 287° |
| 2026-04-26 02:32 | 36.74324 | -108.08421 | 17918 ft | 203 kts | 286° |
| 2026-04-26 02:32 | 36.74899 | -108.10029 | 17919 ft | 204 kts | 290° |
| 2026-04-26 02:33 | 36.75591 | -108.11576 | 17925 ft | 204 kts | 291° |
| 2026-04-26 02:33 | 36.76277 | -108.13121 | 17929 ft | 203 kts | 291° |
| 2026-04-26 02:33 | 36.76955 | -108.14659 | 17922 ft | 202 kts | 291° |
| 2026-04-26 02:33 | 36.77633 | -108.16192 | 17921 ft | 201 kts | 291° |
| 2026-04-26 02:34 | 36.78313 | -108.17719 | 17925 ft | 201 kts | 292° |
| 2026-04-26 02:34 | 36.78987 | -108.19256 | 17922 ft | 202 kts | 292° |
| 2026-04-26 02:34 | 36.79663 | -108.20788 | 17920 ft | 202 kts | 292° |
| 2026-04-26 02:34 | 36.80342 | -108.22320 | 17917 ft | 201 kts | 292° |
| 2026-04-26 02:35 | 36.81016 | -108.23843 | 17916 ft | 200 kts | 292° |
| 2026-04-26 02:35 | 36.81677 | -108.25338 | 17917 ft | 199 kts | 292° |
| 2026-04-26 02:35 | 36.82343 | -108.26846 | 17917 ft | 198 kts | 292° |
| 2026-04-26 02:35 | 36.83003 | -108.28345 | 17914 ft | 197 kts | 292° |
| 2026-04-26 02:36 | 36.83663 | -108.29842 | 17909 ft | 197 kts | 292° |
| 2026-04-26 02:36 | 36.84322 | -108.31335 | 17899 ft | 196 kts | 292° |
| 2026-04-26 02:36 | 36.84979 | -108.32828 | 17895 ft | 196 kts | 292° |
| 2026-04-26 02:36 | 36.85635 | -108.34318 | 17885 ft | 195 kts | 292° |
| 2026-04-26 02:37 | 36.86289 | -108.35802 | 17884 ft | 195 kts | 292° |
| 2026-04-26 02:37 | 36.86940 | -108.37282 | 17877 ft | 194 kts | 291° |
| 2026-04-26 02:37 | 36.87591 | -108.38762 | 17866 ft | 194 kts | 291° |
| 2026-04-26 02:37 | 36.88240 | -108.40237 | 17863 ft | 193 kts | 291° |
| 2026-04-26 02:38 | 36.88884 | -108.41702 | 17857 ft | 192 kts | 291° |
| 2026-04-26 02:38 | 36.89525 | -108.43163 | 17853 ft | 191 kts | 291° |
| 2026-04-26 02:38 | 36.90160 | -108.44616 | 17853 ft | 191 kts | 291° |
| 2026-04-26 02:38 | 36.90800 | -108.46068 | 17843 ft | 190 kts | 291° |
| 2026-04-26 02:39 | 36.91427 | -108.47496 | 17829 ft | 189 kts | 290° |
| 2026-04-26 02:39 | 36.92061 | -108.48937 | 17829 ft | 190 kts | 291° |
| 2026-04-26 02:39 | 36.92694 | -108.50388 | 17812 ft | 190 kts | 290° |
| 2026-04-26 02:39 | 36.93324 | -108.51828 | 17805 ft | 188 kts | 290° |
| 2026-04-26 02:40 | 36.93949 | -108.53255 | 17799 ft | 186 kts | 290° |
| 2026-04-26 02:40 | 36.94570 | -108.54672 | 17789 ft | 185 kts | 290° |
| 2026-04-26 02:40 | 36.95185 | -108.56077 | 17782 ft | 184 kts | 290° |
| 2026-04-26 02:40 | 36.95795 | -108.57472 | 17768 ft | 182 kts | 290° |
| 2026-04-26 02:41 | 36.96398 | -108.58857 | 17769 ft | 181 kts | 290° |
| 2026-04-26 02:41 | 36.97002 | -108.60235 | 17766 ft | 180 kts | 290° |
| 2026-04-26 02:41 | 36.97602 | -108.61608 | 17762 ft | 180 kts | 290° |
| 2026-04-26 02:41 | 36.98198 | -108.62973 | 17763 ft | 178 kts | 289° |
| 2026-04-26 02:42 | 36.98789 | -108.64329 | 17766 ft | 177 kts | 290° |
| 2026-04-26 02:42 | 36.99377 | -108.65676 | 17761 ft | 176 kts | 290° |
| 2026-04-26 02:42 | 36.99961 | -108.67016 | 17762 ft | 175 kts | 290° |
| 2026-04-26 02:42 | 37.00543 | -108.68352 | 17762 ft | 174 kts | 289° |
| 2026-04-26 02:43 | 37.01699 | -108.71001 | 17755 ft | 173 kts | 289° |
| 2026-04-26 02:43 | 37.02267 | -108.72325 | 17754 ft | 172 kts | 289° |
| 2026-04-26 02:43 | 37.02646 | -108.73194 | 17755 ft | 172 kts | 290° |
| 2026-04-26 02:44 | 37.03222 | -108.74506 | 17756 ft | 172 kts | 290° |
| 2026-04-26 02:44 | 37.03794 | -108.75821 | 17760 ft | 172 kts | 290° |
| 2026-04-26 02:44 | 37.04367 | -108.77140 | 17762 ft | 173 kts | 290° |
| 2026-04-26 02:44 | 37.04942 | -108.78466 | 17761 ft | 173 kts | 290° |
| 2026-04-26 02:45 | 37.05487 | -108.79799 | 17763 ft | 169 kts | 282° |
| 2026-04-26 02:45 | 37.05840 | -108.81194 | 17763 ft | 168 kts | 280° |
| 2026-04-26 02:45 | 37.06195 | -108.82586 | 17758 ft | 168 kts | 280° |
| 2026-04-26 02:45 | 37.06554 | -108.83980 | 17768 ft | 168 kts | 280° |
| 2026-04-26 02:46 | 37.06912 | -108.85372 | 17757 ft | 168 kts | 280° |
| 2026-04-26 02:46 | 37.07271 | -108.86768 | 17760 ft | 168 kts | 280° |
| 2026-04-26 02:46 | 37.07629 | -108.88164 | 17757 ft | 169 kts | 280° |
| 2026-04-26 02:46 | 37.07987 | -108.89561 | 17767 ft | 169 kts | 280° |
| 2026-04-26 02:47 | 37.08346 | -108.90959 | 17761 ft | 169 kts | 280° |
| 2026-04-26 02:47 | 37.08701 | -108.92342 | 17763 ft | 169 kts | 280° |
| 2026-04-26 02:47 | 37.09060 | -108.93740 | 17763 ft | 168 kts | 280° |
| 2026-04-26 02:47 | 37.09416 | -108.95135 | 17759 ft | 168 kts | 280° |
| 2026-04-26 02:48 | 37.09773 | -108.96530 | 17758 ft | 168 kts | 280° |
| 2026-04-26 02:48 | 37.10131 | -108.97929 | 17771 ft | 169 kts | 280° |
| 2026-04-26 02:48 | 37.10491 | -108.99339 | 17755 ft | 170 kts | 280° |
| 2026-04-26 02:48 | 37.10853 | -109.00755 | 17739 ft | 171 kts | 280° |
| 2026-04-26 02:49 | 37.11215 | -109.02172 | 17742 ft | 171 kts | 280° |
| 2026-04-26 02:49 | 37.11578 | -109.03594 | 17744 ft | 172 kts | 280° |
| 2026-04-26 02:49 | 37.11942 | -109.05022 | 17745 ft | 172 kts | 280° |
| 2026-04-26 02:49 | 37.12307 | -109.06452 | 17747 ft | 173 kts | 280° |
| 2026-04-26 02:50 | 37.12674 | -109.07893 | 17749 ft | 174 kts | 280° |
| 2026-04-26 02:50 | 37.13044 | -109.09346 | 17751 ft | 175 kts | 280° |
| 2026-04-26 02:50 | 37.13416 | -109.10807 | 17751 ft | 176 kts | 280° |
| 2026-04-26 02:50 | 37.13784 | -109.12256 | 17742 ft | 177 kts | 280° |
| 2026-04-26 02:51 | 37.14158 | -109.13717 | 17743 ft | 176 kts | 280° |
| 2026-04-26 02:51 | 37.14528 | -109.15181 | 17744 ft | 176 kts | 280° |
| 2026-04-26 02:51 | 37.14898 | -109.16640 | 17748 ft | 176 kts | 280° |
| 2026-04-26 02:51 | 37.15270 | -109.18105 | 17743 ft | 176 kts | 280° |
| 2026-04-26 02:52 | 37.15642 | -109.19570 | 17745 ft | 176 kts | 280° |
| 2026-04-26 02:52 | 37.16012 | -109.21036 | 17746 ft | 177 kts | 280° |
| 2026-04-26 02:52 | 37.16387 | -109.22511 | 17736 ft | 178 kts | 280° |
| 2026-04-26 02:52 | 37.16763 | -109.23996 | 17736 ft | 179 kts | 280° |
| 2026-04-26 02:53 | 37.17141 | -109.25491 | 17736 ft | 180 kts | 280° |
| 2026-04-26 02:53 | 37.17520 | -109.26989 | 17733 ft | 181 kts | 280° |
| 2026-04-26 02:53 | 37.17900 | -109.28497 | 17731 ft | 182 kts | 280° |
| 2026-04-26 02:53 | 37.18283 | -109.30012 | 17734 ft | 183 kts | 280° |
| 2026-04-26 02:54 | 37.18669 | -109.31537 | 17734 ft | 184 kts | 280° |
| 2026-04-26 02:54 | 37.19051 | -109.33057 | 17734 ft | 186 kts | 280° |
| 2026-04-26 02:54 | 37.19442 | -109.34604 | 17735 ft | 186 kts | 280° |
| 2026-04-26 02:54 | 37.19833 | -109.36157 | 17732 ft | 187 kts | 280° |
| 2026-04-26 02:55 | 37.20226 | -109.37718 | 17735 ft | 188 kts | 280° |
| 2026-04-26 02:55 | 37.20622 | -109.39289 | 17731 ft | 189 kts | 280° |
| 2026-04-26 02:55 | 37.21018 | -109.40863 | 17730 ft | 190 kts | 280° |
| 2026-04-26 02:55 | 37.21416 | -109.42445 | 17728 ft | 191 kts | 280° |
| 2026-04-26 02:56 | 37.21815 | -109.44036 | 17724 ft | 191 kts | 280° |
| 2026-04-26 02:56 | 37.22216 | -109.45637 | 17723 ft | 192 kts | 280° |
| 2026-04-26 02:56 | 37.22619 | -109.47243 | 17721 ft | 193 kts | 280° |
| 2026-04-26 02:56 | 37.23022 | -109.48848 | 17724 ft | 192 kts | 280° |
| 2026-04-26 02:57 | 37.23424 | -109.50449 | 17720 ft | 192 kts | 280° |
| 2026-04-26 02:57 | 37.23823 | -109.52045 | 17721 ft | 192 kts | 280° |
| 2026-04-26 02:57 | 37.24222 | -109.53640 | 17720 ft | 191 kts | 280° |
| 2026-04-26 02:57 | 37.24621 | -109.55240 | 17717 ft | 193 kts | 280° |
| 2026-04-26 02:58 | 37.25024 | -109.56851 | 17716 ft | 194 kts | 280° |
| 2026-04-26 02:58 | 37.25428 | -109.58470 | 17718 ft | 195 kts | 280° |
| 2026-04-26 02:58 | 37.25836 | -109.60102 | 17719 ft | 196 kts | 280° |
| 2026-04-26 02:58 | 37.26238 | -109.61717 | 17721 ft | 197 kts | 280° |
| 2026-04-26 02:59 | 37.26647 | -109.63358 | 17735 ft | 197 kts | 280° |
| 2026-04-26 02:59 | 37.27057 | -109.65002 | 17727 ft | 197 kts | 280° |
| 2026-04-26 02:59 | 37.27467 | -109.66648 | 17732 ft | 197 kts | 280° |
| 2026-04-26 02:59 | 37.27876 | -109.68294 | 17724 ft | 197 kts | 280° |
| 2026-04-26 03:00 | 37.28284 | -109.69936 | 17717 ft | 196 kts | 280° |
| 2026-04-26 03:00 | 37.28691 | -109.71573 | 17716 ft | 196 kts | 280° |
| 2026-04-26 03:00 | 37.29097 | -109.73208 | 17716 ft | 196 kts | 280° |
| 2026-04-26 03:00 | 37.29503 | -109.74852 | 17714 ft | 196 kts | 280° |
| 2026-04-26 03:01 | 37.29911 | -109.76492 | 17723 ft | 198 kts | 280° |
| 2026-04-26 03:01 | 37.30320 | -109.78143 | 17721 ft | 198 kts | 280° |
| 2026-04-26 03:01 | 37.30730 | -109.79799 | 17725 ft | 199 kts | 280° |
| 2026-04-26 03:01 | 37.31140 | -109.81462 | 17710 ft | 200 kts | 281° |
| 2026-04-26 03:02 | 37.31554 | -109.83133 | 17716 ft | 201 kts | 281° |
| 2026-04-26 03:02 | 37.31969 | -109.84811 | 17717 ft | 201 kts | 281° |
| 2026-04-26 03:02 | 37.32377 | -109.86463 | 17714 ft | 200 kts | 281° |
| 2026-04-26 03:02 | 37.32787 | -109.88123 | 17713 ft | 198 kts | 281° |
| 2026-04-26 03:03 | 37.33193 | -109.89776 | 17711 ft | 197 kts | 281° |
| 2026-04-26 03:03 | 37.33600 | -109.91425 | 17711 ft | 198 kts | 281° |
| 2026-04-26 03:03 | 37.34008 | -109.93080 | 17713 ft | 199 kts | 281° |
| 2026-04-26 03:03 | 37.34417 | -109.94744 | 17709 ft | 199 kts | 281° |
| 2026-04-26 03:04 | 37.34826 | -109.96407 | 17715 ft | 199 kts | 281° |
| 2026-04-26 03:04 | 37.35234 | -109.98070 | 17715 ft | 199 kts | 281° |
| 2026-04-26 03:04 | 37.35643 | -109.99731 | 17714 ft | 199 kts | 281° |
| 2026-04-26 03:04 | 37.36051 | -110.01398 | 17714 ft | 199 kts | 281° |
| 2026-04-26 03:05 | 37.36459 | -110.03059 | 17715 ft | 199 kts | 281° |
| 2026-04-26 03:05 | 37.36867 | -110.04723 | 17718 ft | 200 kts | 281° |
| 2026-04-26 03:05 | 37.37274 | -110.06390 | 17715 ft | 199 kts | 280° |
| 2026-04-26 03:05 | 37.37683 | -110.08058 | 17727 ft | 200 kts | 279° |
| 2026-04-26 03:06 | 37.38093 | -110.09736 | 17706 ft | 201 kts | 279° |
| 2026-04-26 03:06 | 37.38505 | -110.11422 | 17707 ft | 202 kts | 279° |
| 2026-04-26 03:06 | 37.38917 | -110.13112 | 17707 ft | 202 kts | 279° |
| 2026-04-26 03:06 | 37.39324 | -110.14778 | 17710 ft | 202 kts | 280° |
| 2026-04-26 03:07 | 37.39736 | -110.16462 | 17711 ft | 201 kts | 280° |
| 2026-04-26 03:07 | 37.40145 | -110.18140 | 17690 ft | 199 kts | 279° |
| 2026-04-26 03:07 | 37.40544 | -110.19795 | 17703 ft | 198 kts | 280° |
| 2026-04-26 03:07 | 37.40951 | -110.21450 | 17692 ft | 198 kts | 280° |
| 2026-04-26 03:08 | 37.41354 | -110.23104 | 17693 ft | 198 kts | 279° |
| 2026-04-26 03:08 | 37.41755 | -110.24758 | 17692 ft | 197 kts | 279° |
| 2026-04-26 03:08 | 37.42155 | -110.26406 | 17692 ft | 197 kts | 279° |
| 2026-04-26 03:08 | 37.42555 | -110.28056 | 17689 ft | 197 kts | 280° |
| 2026-04-26 03:09 | 37.42954 | -110.29698 | 17684 ft | 196 kts | 280° |
| 2026-04-26 03:09 | 37.43351 | -110.31338 | 17684 ft | 196 kts | 280° |
| 2026-04-26 03:09 | 37.43747 | -110.32971 | 17680 ft | 195 kts | 280° |
| 2026-04-26 03:09 | 37.44140 | -110.34599 | 17667 ft | 194 kts | 280° |
| 2026-04-26 03:10 | 37.44532 | -110.36220 | 17670 ft | 193 kts | 279° |
| 2026-04-26 03:10 | 37.44922 | -110.37834 | 17669 ft | 193 kts | 279° |
| 2026-04-26 03:10 | 37.45311 | -110.39443 | 17670 ft | 192 kts | 279° |
| 2026-04-26 03:10 | 37.45698 | -110.41046 | 17668 ft | 191 kts | 279° |
| 2026-04-26 03:11 | 37.46084 | -110.42645 | 17670 ft | 191 kts | 279° |
| 2026-04-26 03:11 | 37.46464 | -110.44221 | 17669 ft | 190 kts | 279° |
| 2026-04-26 03:11 | 37.46846 | -110.45807 | 17667 ft | 189 kts | 279° |
| 2026-04-26 03:11 | 37.47226 | -110.47378 | 17676 ft | 185 kts | 281° |
| 2026-04-26 03:12 | 37.47600 | -110.48919 | 17670 ft | 183 kts | 280° |
| 2026-04-26 03:12 | 37.47959 | -110.50450 | 17673 ft | 182 kts | 281° |
| 2026-04-26 03:12 | 37.48331 | -110.51966 | 17664 ft | 181 kts | 281° |
| 2026-04-26 03:12 | 37.48691 | -110.53483 | 17657 ft | 181 kts | 280° |
| 2026-04-26 03:13 | 37.49053 | -110.54997 | 17655 ft | 180 kts | 281° |
| 2026-04-26 03:13 | 37.49411 | -110.56498 | 17622 ft | 177 kts | 279° |
| 2026-04-26 03:13 | 37.49759 | -110.57969 | 17657 ft | 175 kts | 281° |
| 2026-04-26 03:13 | 37.50121 | -110.59428 | 17656 ft | 174 kts | 281° |
| 2026-04-26 03:14 | 37.50471 | -110.60889 | 17653 ft | 174 kts | 280° |
| 2026-04-26 03:14 | 37.50818 | -110.62354 | 17665 ft | 175 kts | 279° |
| 2026-04-26 03:14 | 37.51169 | -110.63824 | 17662 ft | 176 kts | 279° |
| 2026-04-26 03:14 | 37.51516 | -110.65280 | 17660 ft | 176 kts | 279° |
| 2026-04-26 03:15 | 37.51869 | -110.66756 | 17659 ft | 176 kts | 279° |
| 2026-04-26 03:15 | 37.52221 | -110.68228 | 17658 ft | 175 kts | 279° |
| 2026-04-26 03:15 | 37.52571 | -110.69702 | 17658 ft | 175 kts | 279° |
| 2026-04-26 03:15 | 37.52922 | -110.71168 | 17657 ft | 175 kts | 279° |
| 2026-04-26 03:16 | 37.53271 | -110.72636 | 17650 ft | 175 kts | 279° |
| 2026-04-26 03:16 | 37.53619 | -110.74100 | 17650 ft | 174 kts | 279° |
| 2026-04-26 03:16 | 37.53967 | -110.75560 | 17648 ft | 174 kts | 279° |
| 2026-04-26 03:16 | 37.54315 | -110.77022 | 17643 ft | 173 kts | 279° |
| 2026-04-26 03:17 | 37.54658 | -110.78465 | 17643 ft | 172 kts | 279° |
| 2026-04-26 03:17 | 37.54997 | -110.79892 | 17640 ft | 168 kts | 279° |
| 2026-04-26 03:17 | 37.55330 | -110.81288 | 17662 ft | 165 kts | 280° |
| 2026-04-26 03:17 | 37.55659 | -110.82676 | 17661 ft | 165 kts | 279° |
| 2026-04-26 03:18 | 37.55980 | -110.84042 | 17661 ft | 164 kts | 280° |
| 2026-04-26 03:18 | 37.56306 | -110.85413 | 17657 ft | 163 kts | 280° |
| 2026-04-26 03:18 | 37.56628 | -110.86775 | 17658 ft | 162 kts | 280° |
| 2026-04-26 03:18 | 37.56952 | -110.88135 | 17650 ft | 161 kts | 281° |
| 2026-04-26 03:19 | 37.57440 | -110.89419 | 17652 ft | 163 kts | 291° |
| 2026-04-26 03:19 | 37.57980 | -110.90659 | 17651 ft | 161 kts | 290° |
| 2026-04-26 03:19 | 37.58497 | -110.91900 | 17653 ft | 160 kts | 290° |
| 2026-04-26 03:19 | 37.59020 | -110.93137 | 17652 ft | 159 kts | 290° |
| 2026-04-26 03:20 | 37.59545 | -110.94370 | 17655 ft | 160 kts | 290° |
| 2026-04-26 03:20 | 37.60070 | -110.95616 | 17657 ft | 161 kts | 289° |
| 2026-04-26 03:20 | 37.60596 | -110.96868 | 17664 ft | 163 kts | 290° |
| 2026-04-26 03:20 | 37.61132 | -110.98136 | 17666 ft | 165 kts | 290° |
| 2026-04-26 03:21 | 37.61665 | -110.99414 | 17664 ft | 164 kts | 289° |
| 2026-04-26 03:21 | 37.62206 | -111.00690 | 17673 ft | 165 kts | 290° |
| 2026-04-26 03:21 | 37.62742 | -111.01963 | 17674 ft | 165 kts | 290° |
| 2026-04-26 03:21 | 37.63278 | -111.03239 | 17674 ft | 164 kts | 290° |
| 2026-04-26 03:22 | 37.63814 | -111.04513 | 17675 ft | 165 kts | 289° |
| 2026-04-26 03:22 | 37.64352 | -111.05793 | 17676 ft | 165 kts | 290° |
| 2026-04-26 03:22 | 37.64893 | -111.07080 | 17680 ft | 168 kts | 288° |
| 2026-04-26 03:22 | 37.65440 | -111.08385 | 17676 ft | 169 kts | 289° |
| 2026-04-26 03:23 | 37.65989 | -111.09686 | 17679 ft | 171 kts | 289° |
| 2026-04-26 03:23 | 37.66556 | -111.11013 | 17678 ft | 172 kts | 290° |
| 2026-04-26 03:23 | 37.67123 | -111.12351 | 17684 ft | 173 kts | 289° |
| 2026-04-26 03:23 | 37.67696 | -111.13700 | 17678 ft | 175 kts | 290° |
| 2026-04-26 03:24 | 37.68273 | -111.15057 | 17689 ft | 176 kts | 290° |
| 2026-04-26 03:24 | 37.68846 | -111.16421 | 17689 ft | 176 kts | 290° |
| 2026-04-26 03:24 | 37.69427 | -111.17789 | 17691 ft | 178 kts | 290° |
| 2026-04-26 03:24 | 37.70013 | -111.19167 | 17690 ft | 179 kts | 290° |
| 2026-04-26 03:25 | 37.70600 | -111.20556 | 17688 ft | 180 kts | 290° |
| 2026-04-26 03:25 | 37.71191 | -111.21951 | 17696 ft | 180 kts | 290° |
| 2026-04-26 03:25 | 37.71784 | -111.23356 | 17696 ft | 182 kts | 290° |
| 2026-04-26 03:25 | 37.72381 | -111.24768 | 17695 ft | 183 kts | 290° |
| 2026-04-26 03:26 | 37.72982 | -111.26191 | 17695 ft | 184 kts | 290° |
| 2026-04-26 03:26 | 37.73587 | -111.27618 | 17700 ft | 185 kts | 290° |
| 2026-04-26 03:26 | 37.74192 | -111.29054 | 17700 ft | 185 kts | 290° |
| 2026-04-26 03:26 | 37.74799 | -111.30495 | 17700 ft | 185 kts | 290° |
| 2026-04-26 03:27 | 37.75404 | -111.31928 | 17699 ft | 185 kts | 290° |
| 2026-04-26 03:27 | 37.76009 | -111.33362 | 17699 ft | 185 kts | 290° |
| 2026-04-26 03:27 | 37.76616 | -111.34805 | 17703 ft | 186 kts | 290° |
| 2026-04-26 03:27 | 37.77219 | -111.36235 | 17699 ft | 187 kts | 290° |
| 2026-04-26 03:28 | 37.77829 | -111.37685 | 17700 ft | 187 kts | 290° |
| 2026-04-26 03:28 | 37.78442 | -111.39142 | 17703 ft | 188 kts | 290° |
| 2026-04-26 03:28 | 37.79058 | -111.40607 | 17715 ft | 188 kts | 290° |
| 2026-04-26 03:28 | 37.79678 | -111.42077 | 17716 ft | 189 kts | 290° |
| 2026-04-26 03:29 | 37.80297 | -111.43551 | 17724 ft | 191 kts | 290° |
| 2026-04-26 03:29 | 37.80922 | -111.45045 | 17714 ft | 193 kts | 290° |
| 2026-04-26 03:29 | 37.81554 | -111.46547 | 17719 ft | 194 kts | 290° |
| 2026-04-26 03:29 | 37.82186 | -111.48054 | 17714 ft | 194 kts | 290° |
| 2026-04-26 03:30 | 37.82818 | -111.49561 | 17719 ft | 194 kts | 290° |
| 2026-04-26 03:30 | 37.83452 | -111.51069 | 17721 ft | 194 kts | 290° |
| 2026-04-26 03:30 | 37.84088 | -111.52591 | 17712 ft | 196 kts | 290° |
| 2026-04-26 03:30 | 37.84724 | -111.54115 | 17722 ft | 195 kts | 290° |
| 2026-04-26 03:31 | 37.85353 | -111.55607 | 17729 ft | 195 kts | 290° |
| 2026-04-26 03:31 | 37.85986 | -111.57122 | 17725 ft | 194 kts | 290° |
| 2026-04-26 03:31 | 37.86619 | -111.58630 | 17724 ft | 194 kts | 290° |
| 2026-04-26 03:31 | 37.87242 | -111.60133 | 17721 ft | 192 kts | 290° |
| 2026-04-26 03:32 | 37.87870 | -111.61635 | 17723 ft | 194 kts | 290° |
| 2026-04-26 03:32 | 37.88290 | -111.62634 | 17722 ft | 195 kts | 290° |
| 2026-04-26 03:32 | 37.88927 | -111.64160 | 17726 ft | 196 kts | 291° |
| 2026-04-26 03:32 | 37.89569 | -111.65699 | 17729 ft | 198 kts | 290° |
| 2026-04-26 03:33 | 37.90209 | -111.67240 | 17729 ft | 198 kts | 290° |
| 2026-04-26 03:33 | 37.90851 | -111.68780 | 17728 ft | 198 kts | 290° |
| 2026-04-26 03:33 | 37.91493 | -111.70315 | 17724 ft | 197 kts | 290° |
| 2026-04-26 03:33 | 37.92133 | -111.71850 | 17726 ft | 197 kts | 290° |
| 2026-04-26 03:34 | 37.92779 | -111.73409 | 17555 ft | 205 kts | 291° |
| 2026-04-26 03:34 | 37.93461 | -111.75053 | 17313 ft | 216 kts | 291° |
| 2026-04-26 03:34 | 37.94177 | -111.76770 | 17066 ft | 223 kts | 292° |
| 2026-04-26 03:34 | 37.94753 | -111.78583 | 16808 ft | 221 kts | 276° |
| 2026-04-26 03:35 | 37.94811 | -111.80505 | 16570 ft | 218 kts | 259° |
| 2026-04-26 03:35 | 37.94379 | -111.82325 | 16324 ft | 216 kts | 242° |
| 2026-04-26 03:35 | 37.93512 | -111.83862 | 16079 ft | 215 kts | 227° |
| 2026-04-26 03:35 | 37.92477 | -111.85243 | 15847 ft | 216 kts | 227° |
| 2026-04-26 03:36 | 37.91442 | -111.86634 | 15573 ft | 217 kts | 224° |
| 2026-04-26 03:36 | 37.90259 | -111.87831 | 15306 ft | 218 kts | 224° |
| 2026-04-26 03:36 | 37.89279 | -111.89273 | 15304 ft | 212 kts | 231° |
| 2026-04-26 03:36 | 37.88381 | -111.90711 | 15324 ft | 207 kts | 229° |
| 2026-04-26 03:37 | 37.87350 | -111.92005 | 15101 ft | 212 kts | 219° |
| 2026-04-26 03:37 | 37.86068 | -111.92935 | 14905 ft | 215 kts | 201° |
| 2026-04-26 03:37 | 37.84627 | -111.93460 | 14590 ft | 219 kts | 204° |
| 2026-04-26 03:37 | 37.83361 | -111.94461 | 14274 ft | 221 kts | 221° |
| 2026-04-26 03:38 | 37.82429 | -111.96054 | 13650 ft | 232 kts | 239° |
| 2026-04-26 03:38 | 37.81787 | -111.97885 | 13296 ft | 223 kts | 245° |
| 2026-04-26 03:38 | 37.81162 | -111.99664 | 12564 ft | 227 kts | 240° |
| 2026-04-26 03:38 | 37.80366 | -112.01390 | 11746 ft | 227 kts | 234° |
| 2026-04-26 03:39 | 37.79429 | -112.02940 | 11201 ft | 214 kts | 226° |
| 2026-04-26 03:39 | 37.78398 | -112.04271 | 10494 ft | 211 kts | 225° |
| 2026-04-26 03:39 | 37.77377 | -112.05585 | 9873 ft | 207 kts | 225° |
| 2026-04-26 03:39 | 37.76402 | -112.06841 | 9453 ft | 195 kts | 226° |
| 2026-04-26 03:40 | 37.75485 | -112.08125 | 8850 ft | 191 kts | 225° |
| 2026-04-26 03:40 | 37.74675 | -112.09235 | 8606 ft | 156 kts | 222° |
| 2026-04-26 03:40 | 37.73980 | -112.10147 | 8238 ft | 136 kts | 227° |
| 2026-04-26 03:40 | 37.73380 | -112.10927 | 8069 ft | 112 kts | 223° |
| 2026-04-26 03:41 | 37.72873 | -112.11630 | 7871 ft | 102 kts | 228° |
| 2026-04-26 03:41 | 37.72395 | -112.12252 | 7720 ft | 98 kts | 227° |
| 2026-04-26 03:41 | 37.71939 | -112.12853 | 7643 ft | 93 kts | 227° |
| 2026-04-26 03:41 | 37.71515 | -112.13427 | 7590 ft | 88 kts | 226° |
| 2026-04-26 03:42 | 37.71095 | -112.13986 | 7559 ft | 82 kts | 223° |
| 2026-04-26 03:42 | 37.70793 | -112.14383 | 7567 ft | 45 kts | 226° |
| 2026-04-26 03:42 | 37.70662 | -112.14560 | 7569 ft | 12 kts | 241° |
| 2026-04-26 03:42 | 37.70687 | -112.14623 | 7569 ft | 8 kts | 313° |
| 2026-04-26 03:43 | 37.70691 | -112.14671 | 7569 ft | 4 kts | 228° |
| 2026-04-26 03:43 | 37.70682 | -112.14683 | 7569 ft | 0 kts | 226° |
| 2026-04-26 03:43 | 37.70664 | -112.14708 | 7570 ft | 10 kts | 225° |
| 2026-04-26 03:43 | 37.70598 | -112.14794 | 7571 ft | 16 kts | 227° |
| 2026-04-26 03:44 | 37.70513 | -112.14907 | 7575 ft | 20 kts | 231° |
| 2026-04-26 03:44 | 37.70406 | -112.15053 | 7577 ft | 23 kts | 227° |
| 2026-04-26 03:44 | 37.70303 | -112.15188 | 7580 ft | 20 kts | 225° |
| 2026-04-26 03:44 | 37.70217 | -112.15302 | 7582 ft | 16 kts | 225° |
| 2026-04-26 03:45 | 37.70151 | -112.15393 | 7584 ft | 12 kts | 226° |
| 2026-04-26 03:45 | 37.70133 | -112.15433 | 7584 ft | 4 kts | 293° |
| 2026-04-26 03:45 | 37.70169 | -112.15437 | 7586 ft | 5 kts | 354° |
| 2026-04-26 03:45 | 37.70177 | -112.15448 | 7584 ft | 1 kts | 287° |
| 2026-04-26 03:46 | 37.70180 | -112.15460 | 7584 ft | 0 kts | 283° |